Time;durP1;ratioP1;P1;durP2;ratioP2;P2;SDS_P1;SDS_P2;PMS_P1;PMS_P2;Temp;Humidity;BMP_temperature;BMP_pressure;BME280_temperature;BME280_humidity;BME280_pressure;Samples;Min_cycle;Max_cycle;Signal;HPM_P1;HPM_P2
2023/07/23 00:01:42;;;;;;;5.50;3.55;;;;;;;;;;4990763;28;20045;-48
2023/07/23 00:04:08;;;;;;;5.32;3.72;;;;;;;;;;4994882;28;20396;-49
2023/07/23 00:06:33;;;;;;;5.95;3.20;;;;;;;;;;4991324;28;20061;-45
2023/07/23 00:08:59;;;;;;;6.32;3.58;;;;;;;;;;4995547;28;20027;-48
2023/07/23 00:11:24;;;;;;;4.28;3.45;;;;;;;;;;4978564;28;20155;-48
2023/07/23 00:13:50;;;;;;;7.07;3.15;;;;;;;;;;4993194;28;20045;-48
2023/07/23 00:16:15;;;;;;;9.90;3.80;;;;;;;;;;4992525;28;20038;-47
2023/07/23 00:18:40;;;;;;;7.05;3.58;;;;;;;;;;4994507;28;20041;-48
2023/07/23 00:21:06;;;;;;;5.50;3.50;;;;;;;;;;4994192;28;20042;-47
2023/07/23 00:23:31;;;;;;;6.43;3.80;;;;;;;;;;4993583;28;20057;-47
2023/07/23 00:25:57;;;;;;;7.50;3.63;;;;;;;;;;4993433;28;20156;-46
2023/07/23 00:28:22;;;;;;;8.63;3.78;;;;;;;;;;4995995;28;20030;-47
2023/07/23 00:30:48;;;;;;;8.48;3.30;;;;;;;;;;4999533;28;20136;-46
2023/07/23 00:33:13;;;;;;;4.18;3.20;;;;;;;;;;4998151;28;20033;-48
2023/07/23 00:35:38;;;;;;;8.02;3.60;;;;;;;;;;4996941;28;20433;-48
2023/07/23 00:38:04;;;;;;;8.13;3.92;;;;;;;;;;4999674;28;20072;-49
2023/07/23 00:40:29;;;;;;;4.60;3.15;;;;;;;;;;4999727;28;20515;-47
2023/07/23 00:42:55;;;;;;;5.40;3.33;;;;;;;;;;4997022;28;20057;-47
2023/07/23 00:45:22;;;;;;;3.53;3.22;;;;;;;;;;4998160;28;20076;-47
2023/07/23 00:47:47;;;;;;;10.45;3.70;;;;;;;;;;5000833;28;20028;-46
2023/07/23 00:50:14;;;;;;;6.25;3.33;;;;;;;;;;4999485;28;20118;-46
2023/07/23 00:52:41;;;;;;;4.18;3.00;;;;;;;;;;4999067;28;20026;-48
2023/07/23 00:55:07;;;;;;;4.95;3.10;;;;;;;;;;4988745;28;20092;-47
2023/07/23 00:57:32;;;;;;;6.45;4.07;;;;;;;;;;4996862;28;20113;-47
2023/07/23 00:59:58;;;;;;;11.07;4.13;;;;;;;;;;4997421;28;20125;-47
2023/07/23 01:02:25;;;;;;;7.28;3.72;;;;;;;;;;4997922;28;20041;-49
2023/07/23 01:04:51;;;;;;;8.55;3.40;;;;;;;;;;4989418;28;20094;-50
2023/07/23 01:07:17;;;;;;;11.40;3.30;;;;;;;;;;5005458;28;20085;-49
2023/07/23 01:09:43;;;;;;;6.03;3.40;;;;;;;;;;5010651;28;20026;-44
2023/07/23 01:12:09;;;;;;;8.10;4.22;;;;;;;;;;4980311;28;20400;-46
2023/07/23 01:14:35;;;;;;;5.47;3.47;;;;;;;;;;4990454;28;20105;-47
2023/07/23 01:17:00;;;;;;;8.88;4.15;;;;;;;;;;4984010;28;20457;-48
2023/07/23 01:19:26;;;;;;;8.30;4.18;;;;;;;;;;4992709;28;20065;-48
2023/07/23 01:22:05;;;;;;;7.40;3.60;;;;;;;;;;4991155;28;20512;-46
2023/07/23 01:24:30;;;;;;;7.40;3.72;;;;;;;;;;4998726;28;20038;-46
2023/07/23 01:26:56;;;;;;;9.02;4.18;;;;;;;;;;4997383;28;20041;-47
2023/07/23 01:29:21;;;;;;;8.25;4.30;;;;;;;;;;4989721;28;20030;-47
2023/07/23 01:31:47;;;;;;;6.90;3.63;;;;;;;;;;4998018;28;20049;-48
2023/07/23 01:34:13;;;;;;;7.43;3.70;;;;;;;;;;4997519;28;20026;-51
2023/07/23 01:36:40;;;;;;;5.55;4.00;;;;;;;;;;4996124;28;20110;-47
2023/07/23 01:39:05;;;;;;;7.75;4.03;;;;;;;;;;4996974;28;20069;-46
2023/07/23 01:41:31;;;;;;;6.32;3.35;;;;;;;;;;4997071;28;20042;-48
2023/07/23 01:43:59;;;;;;;9.00;3.70;;;;;;;;;;4996276;28;20023;-47
2023/07/23 01:46:24;;;;;;;7.80;3.72;;;;;;;;;;4998747;28;20125;-45
2023/07/23 01:48:49;;;;;;;4.10;3.55;;;;;;;;;;4996693;28;20069;-48
2023/07/23 01:51:15;;;;;;;8.00;3.92;;;;;;;;;;4985728;28;20043;-47
2023/07/23 01:53:40;;;;;;;9.68;4.03;;;;;;;;;;4988857;28;20029;-48
2023/07/23 01:56:06;;;;;;;7.07;3.88;;;;;;;;;;4977729;28;20508;-47
2023/07/23 01:58:31;;;;;;;6.90;3.92;;;;;;;;;;4994871;28;20028;-47
2023/07/23 02:00:59;;;;;;;5.82;3.65;;;;;;;;;;4967525;28;20065;-47
2023/07/23 02:03:24;;;;;;;6.30;4.28;;;;;;;;;;4987785;28;20087;-48
2023/07/23 02:05:55;;;;;;;5.35;4.07;;;;;;;;;;4996325;28;20501;-50
2023/07/23 02:08:20;;;;;;;6.43;4.32;;;;;;;;;;4991119;28;20042;-48
2023/07/23 02:10:46;;;;;;;4.95;3.78;;;;;;;;;;4997114;28;20504;-46
2023/07/23 02:13:11;;;;;;;6.45;3.50;;;;;;;;;;4980603;28;20027;-46
2023/07/23 02:15:36;;;;;;;9.13;4.57;;;;;;;;;;4996704;28;20053;-45
2023/07/23 02:18:02;;;;;;;4.90;3.90;;;;;;;;;;4998566;28;20041;-47
2023/07/23 02:20:27;;;;;;;5.95;4.35;;;;;;;;;;4994647;28;20046;-46
2023/07/23 02:22:53;;;;;;;6.88;3.38;;;;;;;;;;4998084;28;20488;-45
2023/07/23 02:25:18;;;;;;;5.80;3.58;;;;;;;;;;4977163;28;20497;-48
2023/07/23 02:27:43;;;;;;;4.25;3.60;;;;;;;;;;4993296;28;20031;-48
2023/07/23 02:30:09;;;;;;;9.80;4.05;;;;;;;;;;4993887;28;20444;-47
2023/07/23 02:32:35;;;;;;;5.70;3.92;;;;;;;;;;4980422;28;20050;-46
2023/07/23 02:35:00;;;;;;;8.05;3.80;;;;;;;;;;4982092;28;20451;-47
2023/07/23 02:37:26;;;;;;;5.38;3.75;;;;;;;;;;4979446;28;20105;-47
2023/07/23 02:39:53;;;;;;;7.47;4.10;;;;;;;;;;4995375;28;20113;-46
2023/07/23 02:42:18;;;;;;;6.40;4.03;;;;;;;;;;4996371;28;20030;-46
2023/07/23 02:44:43;;;;;;;10.50;4.18;;;;;;;;;;4992349;28;20096;-47
2023/07/23 02:47:09;;;;;;;9.50;4.28;;;;;;;;;;4993880;28;20041;-45
2023/07/23 02:49:34;;;;;;;6.95;3.92;;;;;;;;;;4989536;28;20023;-45
2023/07/23 02:52:01;;;;;;;9.50;4.20;;;;;;;;;;4988098;28;20034;-48
2023/07/23 02:54:26;;;;;;;7.53;3.97;;;;;;;;;;4984426;28;20066;-46
2023/07/23 02:56:51;;;;;;;8.07;4.05;;;;;;;;;;4986554;28;20066;-48
2023/07/23 02:59:17;;;;;;;9.15;4.35;;;;;;;;;;4981263;28;20030;-47
2023/07/23 03:01:42;;;;;;;5.65;4.03;;;;;;;;;;4964388;28;20034;-47
2023/07/23 03:04:08;;;;;;;11.13;4.00;;;;;;;;;;4964038;28;20058;-48
2023/07/23 03:06:33;;;;;;;8.32;3.80;;;;;;;;;;4984739;28;20141;-47
2023/07/23 03:08:59;;;;;;;6.60;3.88;;;;;;;;;;4993122;28;20034;-48
2023/07/23 03:11:24;;;;;;;11.63;4.28;;;;;;;;;;4988770;28;20563;-46
2023/07/23 03:13:49;;;;;;;6.18;3.90;;;;;;;;;;4991682;28;20086;-48
2023/07/23 03:16:15;;;;;;;6.47;3.80;;;;;;;;;;4986003;28;20101;-49
2023/07/23 03:18:40;;;;;;;13.82;3.88;;;;;;;;;;4992230;28;20042;-48
2023/07/23 03:21:06;;;;;;;6.38;3.85;;;;;;;;;;5005575;28;20092;-46
2023/07/23 03:23:31;;;;;;;4.25;3.83;;;;;;;;;;4987189;28;20045;-50
2023/07/23 03:25:56;;;;;;;4.13;3.55;;;;;;;;;;4982130;28;20038;-48
2023/07/23 03:28:22;;;;;;;11.55;4.40;;;;;;;;;;4995281;28;20037;-49
2023/07/23 03:30:47;;;;;;;5.00;4.00;;;;;;;;;;4983618;28;20121;-47
2023/07/23 03:33:13;;;;;;;5.55;4.13;;;;;;;;;;4995043;28;20038;-47
2023/07/23 03:35:38;;;;;;;5.55;3.80;;;;;;;;;;4976989;28;20076;-46
2023/07/23 03:38:04;;;;;;;6.70;3.35;;;;;;;;;;4993970;28;20444;-46
2023/07/23 03:40:29;;;;;;;8.13;4.20;;;;;;;;;;4972121;28;20208;-50
2023/07/23 03:42:54;;;;;;;4.65;3.50;;;;;;;;;;4995759;28;20069;-46
2023/07/23 03:45:20;;;;;;;7.97;3.58;;;;;;;;;;4992562;28;20041;-50
2023/07/23 03:47:45;;;;;;;11.38;4.10;;;;;;;;;;4989038;28;20122;-47
2023/07/23 03:50:11;;;;;;;7.05;3.50;;;;;;;;;;4994079;28;20138;-46
2023/07/23 03:52:36;;;;;;;10.43;4.07;;;;;;;;;;4996653;28;20431;-47
2023/07/23 03:55:01;;;;;;;6.53;4.10;;;;;;;;;;4991805;28;20045;-51
2023/07/23 03:57:27;;;;;;;6.65;4.22;;;;;;;;;;4996176;28;20041;-47
2023/07/23 03:59:52;;;;;;;6.25;4.18;;;;;;;;;;4996060;28;20029;-47
2023/07/23 04:02:18;;;;;;;4.10;3.38;;;;;;;;;;4992797;28;20124;-49
2023/07/23 04:04:43;;;;;;;5.07;3.85;;;;;;;;;;4991574;28;20030;-47
2023/07/23 04:07:09;;;;;;;7.38;3.67;;;;;;;;;;4996464;28;20039;-46
2023/07/23 04:09:35;;;;;;;4.72;3.97;;;;;;;;;;4993197;28;20037;-50
2023/07/23 04:12:00;;;;;;;10.75;3.63;;;;;;;;;;4986008;28;20396;-46
2023/07/23 04:14:26;;;;;;;6.18;4.10;;;;;;;;;;4991231;28;20033;-45
2023/07/23 04:16:53;;;;;;;6.97;3.72;;;;;;;;;;4979446;28;20504;-49
2023/07/23 04:19:19;;;;;;;7.32;3.55;;;;;;;;;;4995591;28;20038;-47
2023/07/23 04:21:45;;;;;;;10.63;3.53;;;;;;;;;;4995738;28;20038;-48
2023/07/23 04:24:10;;;;;;;7.30;3.70;;;;;;;;;;4985498;28;20133;-47
2023/07/23 04:26:35;;;;;;;5.68;3.97;;;;;;;;;;4990686;28;20035;-48
2023/07/23 04:29:01;;;;;;;6.50;3.80;;;;;;;;;;4996121;28;20723;-46
2023/07/23 04:31:27;;;;;;;3.92;3.53;;;;;;;;;;4991897;28;20117;-46
2023/07/23 04:33:53;;;;;;;8.43;3.95;;;;;;;;;;4996125;28;20053;-47
2023/07/23 04:36:19;;;;;;;5.35;3.92;;;;;;;;;;4983672;28;20564;-47
2023/07/23 04:38:44;;;;;;;4.68;3.63;;;;;;;;;;4994769;28;20543;-46
2023/07/23 04:41:11;;;;;;;4.97;3.40;;;;;;;;;;4987938;28;20042;-49
2023/07/23 04:43:37;;;;;;;6.38;3.72;;;;;;;;;;4987176;28;20371;-47
2023/07/23 04:46:06;;;;;;;6.32;3.78;;;;;;;;;;4984030;28;20070;-48
2023/07/23 04:48:32;;;;;;;8.93;3.50;;;;;;;;;;4984339;28;20038;-49
2023/07/23 04:51:00;;;;;;;10.07;3.90;;;;;;;;;;4984071;28;20050;-45
2023/07/23 04:53:26;;;;;;;5.72;3.80;;;;;;;;;;4988804;28;20123;-46
2023/07/23 04:55:53;;;;;;;9.00;3.92;;;;;;;;;;4987113;28;20092;-47
2023/07/23 04:58:19;;;;;;;6.38;4.10;;;;;;;;;;4994906;28;20077;-46
2023/07/23 05:00:44;;;;;;;5.88;3.70;;;;;;;;;;4991138;28;20045;-47
2023/07/23 05:03:11;;;;;;;9.43;4.03;;;;;;;;;;4978510;28;20035;-46
2023/07/23 05:05:37;;;;;;;7.47;3.80;;;;;;;;;;4981827;28;20069;-45
2023/07/23 05:08:03;;;;;;;6.95;4.13;;;;;;;;;;4990596;28;20038;-48
2023/07/23 05:10:28;;;;;;;7.32;3.60;;;;;;;;;;4992984;28;20057;-48
2023/07/23 05:12:54;;;;;;;6.90;4.25;;;;;;;;;;4995537;28;20038;-45
2023/07/23 05:15:19;;;;;;;4.68;3.80;;;;;;;;;;4994186;28;20045;-49
2023/07/23 05:17:44;;;;;;;8.50;3.80;;;;;;;;;;4989466;28;20089;-46
2023/07/23 05:20:10;;;;;;;7.25;3.55;;;;;;;;;;4989701;28;20046;-46
2023/07/23 05:22:37;;;;;;;7.55;4.05;;;;;;;;;;4988450;28;20035;-46
2023/07/23 05:25:03;;;;;;;5.00;3.97;;;;;;;;;;4985066;28;20080;-47
2023/07/23 05:27:29;;;;;;;6.20;3.60;;;;;;;;;;4993381;28;20114;-49
2023/07/23 05:29:54;;;;;;;6.35;4.57;;;;;;;;;;4998287;28;20061;-46
2023/07/23 05:32:20;;;;;;;9.45;4.10;;;;;;;;;;4996611;28;20026;-49
2023/07/23 05:34:45;;;;;;;4.15;3.72;;;;;;;;;;4984587;28;20416;-49
2023/07/23 05:37:11;;;;;;;6.45;3.65;;;;;;;;;;4984076;28;20038;-48
2023/07/23 05:39:36;;;;;;;4.43;4.00;;;;;;;;;;4980553;28;20026;-47
2023/07/23 05:42:01;;;;;;;9.85;3.90;;;;;;;;;;4997358;28;20074;-47
2023/07/23 05:44:28;;;;;;;7.95;3.80;;;;;;;;;;4998733;28;20030;-49
2023/07/23 05:46:53;;;;;;;6.97;3.50;;;;;;;;;;4986520;28;20400;-46
2023/07/23 05:49:19;;;;;;;6.07;3.75;;;;;;;;;;4994296;28;20113;-48
2023/07/23 05:51:44;;;;;;;6.45;4.25;;;;;;;;;;4995757;28;20068;-48
2023/07/23 05:54:10;;;;;;;5.53;4.00;;;;;;;;;;4999054;28;20041;-45
2023/07/23 05:56:36;;;;;;;7.10;3.80;;;;;;;;;;4996852;28;20062;-47
2023/07/23 05:59:01;;;;;;;7.40;3.33;;;;;;;;;;4991770;28;20037;-50
2023/07/23 06:01:27;;;;;;;3.95;3.55;;;;;;;;;;4985644;28;20496;-48
2023/07/23 06:03:52;;;;;;;9.23;4.07;;;;;;;;;;4969185;28;20038;-47
2023/07/23 06:06:18;;;;;;;7.30;3.88;;;;;;;;;;4980356;28;20089;-46
2023/07/23 06:08:43;;;;;;;8.30;3.53;;;;;;;;;;4997367;28;20033;-51
2023/07/23 06:11:08;;;;;;;4.78;3.50;;;;;;;;;;4993433;28;20058;-47
2023/07/23 06:13:34;;;;;;;6.32;4.05;;;;;;;;;;4997011;28;20058;-47
2023/07/23 06:15:59;;;;;;;8.48;3.90;;;;;;;;;;4992814;28;20038;-49
2023/07/23 06:18:24;;;;;;;6.68;3.88;;;;;;;;;;4996979;28;20038;-46
2023/07/23 06:20:50;;;;;;;6.30;3.70;;;;;;;;;;4989736;28;20035;-46
2023/07/23 06:23:15;;;;;;;6.63;3.65;;;;;;;;;;4985040;28;20122;-46
2023/07/23 06:25:41;;;;;;;8.35;3.70;;;;;;;;;;4997817;28;20034;-48
2023/07/23 06:28:06;;;;;;;4.32;3.58;;;;;;;;;;4996071;28;20365;-46
2023/07/23 06:30:33;;;;;;;5.80;3.70;;;;;;;;;;4983424;28;20069;-49
2023/07/23 06:32:58;;;;;;;4.88;3.55;;;;;;;;;;4998236;28;20034;-51
2023/07/23 06:35:24;;;;;;;6.13;3.90;;;;;;;;;;4988597;28;20062;-46
2023/07/23 06:37:49;;;;;;;4.75;3.92;;;;;;;;;;4992701;28;20648;-48
2023/07/23 06:40:15;;;;;;;5.25;3.70;;;;;;;;;;4997132;28;20043;-52
2023/07/23 06:42:40;;;;;;;6.97;3.60;;;;;;;;;;4997192;28;20089;-47
2023/07/23 06:45:06;;;;;;;8.27;4.00;;;;;;;;;;4995793;28;20069;-46
2023/07/23 06:47:32;;;;;;;7.75;3.92;;;;;;;;;;4995075;28;20073;-48
2023/07/23 06:49:57;;;;;;;6.03;3.67;;;;;;;;;;4995578;28;20428;-46
2023/07/23 06:52:23;;;;;;;6.68;3.83;;;;;;;;;;4996961;28;20026;-47
2023/07/23 06:54:48;;;;;;;3.78;3.20;;;;;;;;;;4978042;28;20030;-47
2023/07/23 06:57:13;;;;;;;4.85;3.72;;;;;;;;;;4994927;28;20026;-46
2023/07/23 06:59:39;;;;;;;4.60;3.67;;;;;;;;;;4995727;28;20034;-45
2023/07/23 07:02:05;;;;;;;6.70;3.53;;;;;;;;;;4986347;28;20680;-46
2023/07/23 07:04:30;;;;;;;6.63;3.55;;;;;;;;;;4987267;28;20374;-45
2023/07/23 07:06:56;;;;;;;4.65;3.47;;;;;;;;;;4978285;28;20056;-46
2023/07/23 07:09:21;;;;;;;5.13;3.60;;;;;;;;;;4994240;28;20456;-47
2023/07/23 07:11:49;;;;;;;5.57;3.75;;;;;;;;;;4979530;28;20068;-47
2023/07/23 07:14:15;;;;;;;5.63;3.53;;;;;;;;;;4995894;28;20050;-46
2023/07/23 07:16:40;;;;;;;7.38;3.72;;;;;;;;;;4993057;28;20038;-48
2023/07/23 07:19:05;;;;;;;6.43;3.55;;;;;;;;;;4994635;28;20022;-47
2023/07/23 07:21:31;;;;;;;6.95;3.60;;;;;;;;;;4991687;28;20042;-46
2023/07/23 07:23:56;;;;;;;6.10;3.55;;;;;;;;;;4997376;28;20033;-46
2023/07/23 07:26:22;;;;;;;4.63;3.60;;;;;;;;;;4988162;28;20062;-47
2023/07/23 07:28:47;;;;;;;7.85;3.47;;;;;;;;;;4991661;28;20648;-48
2023/07/23 07:31:15;;;;;;;6.35;3.90;;;;;;;;;;4982630;28;20038;-46
2023/07/23 07:33:40;;;;;;;3.42;3.13;;;;;;;;;;4993143;28;20027;-48
2023/07/23 07:36:06;;;;;;;4.40;4.03;;;;;;;;;;4996503;28;20052;-46
2023/07/23 07:38:32;;;;;;;7.15;3.67;;;;;;;;;;4989541;28;20042;-46
2023/07/23 07:40:57;;;;;;;5.22;4.50;;;;;;;;;;4992827;28;20038;-48
2023/07/23 07:43:24;;;;;;;6.90;4.50;;;;;;;;;;4992458;28;20037;-49
2023/07/23 07:45:54;;;;;;;7.38;4.32;;;;;;;;;;4994707;28;20034;-49
2023/07/23 07:48:20;;;;;;;5.10;4.22;;;;;;;;;;4993194;28;20030;-47
2023/07/23 07:50:48;;;;;;;5.22;3.90;;;;;;;;;;4984749;28;20408;-48
2023/07/23 07:53:15;;;;;;;6.07;4.30;;;;;;;;;;4983161;28;20030;-48
2023/07/23 07:55:41;;;;;;;6.13;4.85;;;;;;;;;;4996613;28;20057;-48
2023/07/23 07:58:12;;;;;;;6.82;4.55;;;;;;;;;;4995048;28;20034;-46
2023/07/23 08:00:39;;;;;;;6.25;5.03;;;;;;;;;;4983195;28;20062;-48
2023/07/23 08:03:04;;;;;;;6.35;4.53;;;;;;;;;;4982654;28;20058;-47
2023/07/23 08:05:30;;;;;;;14.02;4.63;;;;;;;;;;4994565;28;20034;-48
2023/07/23 08:07:56;;;;;;;9.15;5.07;;;;;;;;;;4994790;28;20054;-49
2023/07/23 08:10:22;;;;;;;12.18;4.70;;;;;;;;;;4983905;28;20042;-46
2023/07/23 08:12:48;;;;;;;7.00;5.10;;;;;;;;;;4970781;28;20054;-47
2023/07/23 08:15:13;;;;;;;7.30;5.10;;;;;;;;;;5007291;28;20046;-49
2023/07/23 08:17:39;;;;;;;7.75;4.90;;;;;;;;;;5008909;28;20381;-47
2023/07/23 08:20:05;;;;;;;6.78;4.72;;;;;;;;;;4992930;28;20043;-45
2023/07/23 08:22:31;;;;;;;5.05;4.35;;;;;;;;;;4977365;28;20030;-46
2023/07/23 08:24:56;;;;;;;8.52;4.90;;;;;;;;;;4984149;28;20027;-47
2023/07/23 08:27:25;;;;;;;5.82;5.25;;;;;;;;;;4991151;28;20032;-48
2023/07/23 08:29:50;;;;;;;8.57;5.18;;;;;;;;;;4996360;28;20042;-49
2023/07/23 08:32:17;;;;;;;6.40;4.90;;;;;;;;;;4994182;28;20380;-47
2023/07/23 08:34:44;;;;;;;6.80;5.20;;;;;;;;;;4986633;28;20121;-44
2023/07/23 08:37:10;;;;;;;5.75;5.15;;;;;;;;;;4990312;28;20034;-46
2023/07/23 08:39:36;;;;;;;10.30;4.93;;;;;;;;;;4995327;28;20081;-47
2023/07/23 08:42:34;;;;;;;6.15;4.57;;;;;;;;;;4992911;28;20493;-46
2023/07/23 08:45:02;;;;;;;5.18;4.68;;;;;;;;;;4992841;28;20050;-48
2023/07/23 08:47:35;;;;;;;5.80;4.93;;;;;;;;;;4993759;28;20106;-46
2023/07/23 08:50:01;;;;;;;5.47;4.72;;;;;;;;;;4995600;28;20034;-46
2023/07/23 08:52:28;;;;;;;7.47;5.00;;;;;;;;;;4998725;28;20054;-48
2023/07/23 08:54:55;;;;;;;6.40;5.13;;;;;;;;;;4994747;28;20031;-46
2023/07/23 08:57:20;;;;;;;9.23;4.93;;;;;;;;;;4998573;28;20018;-47
2023/07/23 08:59:46;;;;;;;7.32;4.70;;;;;;;;;;4983897;28;20083;-46
2023/07/23 09:02:15;;;;;;;11.38;5.07;;;;;;;;;;4987993;28;20759;-50
2023/07/23 09:04:40;;;;;;;9.30;4.35;;;;;;;;;;4994454;28;20038;-47
2023/07/23 09:07:09;;;;;;;6.50;4.20;;;;;;;;;;4991389;28;20034;-46
2023/07/23 09:09:35;;;;;;;5.15;4.10;;;;;;;;;;4993842;28;20505;-49
2023/07/23 09:12:03;;;;;;;4.95;4.45;;;;;;;;;;4980139;28;20198;-48
2023/07/23 09:14:28;;;;;;;6.28;4.30;;;;;;;;;;4992980;28;20468;-48
2023/07/23 09:16:54;;;;;;;4.35;3.95;;;;;;;;;;4993981;28;20061;-47
2023/07/23 09:19:24;;;;;;;7.00;4.30;;;;;;;;;;4989201;28;20030;-48
2023/07/23 09:21:55;;;;;;;4.72;4.20;;;;;;;;;;4976345;28;20076;-46
2023/07/23 09:24:20;;;;;;;4.90;4.40;;;;;;;;;;4989861;28;20637;-48
2023/07/23 09:26:46;;;;;;;4.40;4.00;;;;;;;;;;4992755;28;20093;-47
2023/07/23 09:29:12;;;;;;;5.35;4.22;;;;;;;;;;4987314;28;20061;-46
2023/07/23 09:31:44;;;;;;;6.65;4.28;;;;;;;;;;4998995;28;20031;-46
2023/07/23 09:34:09;;;;;;;6.78;4.50;;;;;;;;;;4995903;28;20030;-47
2023/07/23 09:36:35;;;;;;;12.18;4.72;;;;;;;;;;4995822;28;20047;-48
2023/07/23 09:39:08;;;;;;;10.48;4.50;;;;;;;;;;4996087;28;20623;-46
2023/07/23 09:41:38;;;;;;;9.07;4.30;;;;;;;;;;4995283;28;20380;-46
2023/07/23 09:44:11;;;;;;;6.27;4.50;;;;;;;;;;4995925;28;20121;-47
2023/07/23 09:46:38;;;;;;;7.20;4.30;;;;;;;;;;4998570;28;20046;-46
2023/07/23 09:49:03;;;;;;;6.78;4.22;;;;;;;;;;4997969;28;20034;-47
2023/07/23 09:51:31;;;;;;;9.10;4.70;;;;;;;;;;4997376;28;20049;-49
2023/07/23 09:54:01;;;;;;;6.68;4.35;;;;;;;;;;4997101;28;20026;-48
2023/07/23 09:56:27;;;;;;;4.15;3.78;;;;;;;;;;4989688;28;20039;-47
2023/07/23 09:58:54;;;;;;;5.38;4.07;;;;;;;;;;4984279;28;20070;-49
2023/07/23 10:01:20;;;;;;;6.95;4.10;;;;;;;;;;4987684;28;20034;-47
2023/07/23 10:03:47;;;;;;;4.60;4.18;;;;;;;;;;4989466;28;20559;-47
2023/07/23 10:06:20;;;;;;;4.95;4.32;;;;;;;;;;4987732;28;20038;-46
2023/07/23 10:08:48;;;;;;;6.35;4.13;;;;;;;;;;4992092;28;20113;-46
2023/07/23 10:11:15;;;;;;;5.95;4.10;;;;;;;;;;4991582;28;20046;-48
2023/07/23 10:13:42;;;;;;;8.30;5.18;;;;;;;;;;4990148;28;20164;-47
2023/07/23 10:16:15;;;;;;;5.35;4.68;;;;;;;;;;4995237;28;20057;-47
2023/07/23 10:18:42;;;;;;;7.45;4.50;;;;;;;;;;4995737;28;20022;-46
2023/07/23 10:21:08;;;;;;;4.90;4.30;;;;;;;;;;4995862;28;20093;-47
2023/07/23 10:23:37;;;;;;;4.85;3.85;;;;;;;;;;4996837;28;20062;-47
2023/07/23 10:26:19;;;;;;;9.70;4.10;;;;;;;;;;4995552;28;20098;-46
2023/07/23 10:28:45;;;;;;;6.13;4.18;;;;;;;;;;4988771;28;20030;-47
2023/07/23 10:31:29;;;;;;;4.00;3.63;;;;;;;;;;4969093;28;20405;-45
2023/07/23 10:33:55;;;;;;;9.05;4.07;;;;;;;;;;4978594;28;20026;-49
2023/07/23 10:36:22;;;;;;;4.63;4.18;;;;;;;;;;4988672;28;20061;-47
2023/07/23 10:39:04;;;;;;;7.82;3.97;;;;;;;;;;4989829;28;20031;-46
2023/07/23 10:41:55;;;;;;;6.72;4.05;;;;;;;;;;4990181;28;20073;-48
2023/07/23 10:44:27;;;;;;;6.13;3.95;;;;;;;;;;4989547;28;20035;-52
2023/07/23 10:46:53;;;;;;;3.97;3.65;;;;;;;;;;5010660;28;20049;-46
2023/07/23 10:49:26;;;;;;;6.13;3.72;;;;;;;;;;4989563;28;20752;-48
2023/07/23 10:51:52;;;;;;;5.13;3.30;;;;;;;;;;4992309;28;20050;-49
2023/07/23 10:54:19;;;;;;;8.68;3.30;;;;;;;;;;4988076;28;20468;-48
2023/07/23 10:56:46;;;;;;;3.75;3.45;;;;;;;;;;4994856;28;20393;-50
2023/07/23 10:59:16;;;;;;;4.30;3.15;;;;;;;;;;4984847;28;20119;-46
2023/07/23 11:01:43;;;;;;;10.15;3.25;;;;;;;;;;4994269;28;20038;-47
2023/07/23 11:04:38;;;;;;;5.97;3.30;;;;;;;;;;4990258;28;20056;-47
2023/07/23 11:07:04;;;;;;;5.20;3.65;;;;;;;;;;4979845;28;20054;-47
2023/07/23 11:09:35;;;;;;;7.07;3.70;;;;;;;;;;4993458;28;20139;-49
2023/07/23 11:12:03;;;;;;;7.93;3.57;;;;;;;;;;4995262;28;20070;-48
2023/07/23 11:14:30;;;;;;;3.72;3.40;;;;;;;;;;4994629;28;21000;-48
2023/07/23 11:16:57;;;;;;;3.72;3.20;;;;;;;;;;4996096;28;20085;-49
2023/07/23 11:19:24;;;;;;;6.43;3.35;;;;;;;;;;4984567;28;20031;-50
2023/07/23 11:22:01;;;;;;;4.40;3.25;;;;;;;;;;4993391;28;20058;-47
2023/07/23 11:24:28;;;;;;;6.60;3.20;;;;;;;;;;4984524;28;20388;-47
2023/07/23 11:26:59;;;;;;;7.05;3.58;;;;;;;;;;4987969;28;20046;-48
2023/07/23 11:29:25;;;;;;;4.78;3.38;;;;;;;;;;4983862;28;20047;-51
2023/07/23 11:31:52;;;;;;;6.15;3.38;;;;;;;;;;4995985;28;20493;-47
2023/07/23 11:34:18;;;;;;;4.05;3.35;;;;;;;;;;4996954;28;20015;-48
2023/07/23 11:36:43;;;;;;;4.88;3.28;;;;;;;;;;4983051;28;20038;-48
2023/07/23 11:39:09;;;;;;;3.78;3.22;;;;;;;;;;4990713;28;20022;-47
2023/07/23 11:41:42;;;;;;;6.65;3.60;;;;;;;;;;4990576;28;20042;-46
2023/07/23 11:44:08;;;;;;;6.25;3.42;;;;;;;;;;4988144;28;20034;-47
2023/07/23 11:46:36;;;;;;;4.75;3.28;;;;;;;;;;4980192;28;20043;-51
2023/07/23 11:49:02;;;;;;;5.32;3.58;;;;;;;;;;4992026;28;20838;-48
2023/07/23 11:51:29;;;;;;;5.18;3.78;;;;;;;;;;4994147;28;20038;-47
2023/07/23 11:54:00;;;;;;;4.18;3.50;;;;;;;;;;4994380;28;20037;-48
2023/07/23 11:56:25;;;;;;;7.05;3.45;;;;;;;;;;4983936;28;20440;-48
2023/07/23 11:58:51;;;;;;;3.83;3.50;;;;;;;;;;4988611;28;20034;-48
2023/07/23 12:01:17;;;;;;;4.45;3.60;;;;;;;;;;4989215;28;20094;-47
2023/07/23 12:03:44;;;;;;;5.22;3.38;;;;;;;;;;4992601;28;20038;-47
2023/07/23 12:06:14;;;;;;;6.70;3.70;;;;;;;;;;4985028;28;20038;-48
2023/07/23 12:08:42;;;;;;;6.38;3.92;;;;;;;;;;4988260;28;20563;-50
2023/07/23 12:11:12;;;;;;;3.80;3.35;;;;;;;;;;4990212;28;20042;-51
2023/07/23 12:13:43;;;;;;;7.30;3.17;;;;;;;;;;4996402;28;20153;-48
2023/07/23 12:16:34;;;;;;;6.95;3.08;;;;;;;;;;4995629;28;20050;-49
2023/07/23 12:19:02;;;;;;;5.03;3.08;;;;;;;;;;4980375;28;20045;-49
2023/07/23 12:21:27;;;;;;;3.85;3.22;;;;;;;;;;4993634;28;20038;-50
2023/07/23 12:23:53;;;;;;;5.70;3.40;;;;;;;;;;4994193;28;20763;-47
2023/07/23 12:26:18;;;;;;;4.38;3.33;;;;;;;;;;4998616;28;20565;-48
2023/07/23 12:28:44;;;;;;;5.07;3.45;;;;;;;;;;4997119;28;20022;-47
2023/07/23 12:31:09;;;;;;;4.55;3.40;;;;;;;;;;4999253;28;20140;-48
2023/07/23 12:33:35;;;;;;;3.00;2.80;;;;;;;;;;5000372;28;20121;-47
2023/07/23 12:36:02;;;;;;;6.72;3.40;;;;;;;;;;4997362;28;20042;-48
2023/07/23 12:38:28;;;;;;;6.93;3.00;;;;;;;;;;4992509;28;20039;-47
2023/07/23 12:40:53;;;;;;;4.70;3.55;;;;;;;;;;4997684;28;20054;-50
2023/07/23 12:43:19;;;;;;;4.15;3.70;;;;;;;;;;5000267;28;20030;-48
2023/07/23 12:45:44;;;;;;;8.80;3.67;;;;;;;;;;4987354;28;20034;-49
2023/07/23 12:48:09;;;;;;;7.25;3.55;;;;;;;;;;4990142;28;20497;-46
2023/07/23 12:50:35;;;;;;;5.90;4.10;;;;;;;;;;4985531;28;20039;-48
2023/07/23 12:53:00;;;;;;;5.20;3.58;;;;;;;;;;5009076;28;20023;-48
2023/07/23 12:55:26;;;;;;;4.53;3.45;;;;;;;;;;4997127;28;20034;-47
2023/07/23 12:57:51;;;;;;;6.25;3.78;;;;;;;;;;4995307;28;20042;-48
2023/07/23 13:00:18;;;;;;;5.10;3.58;;;;;;;;;;4982742;28;20109;-47
2023/07/23 13:02:44;;;;;;;7.50;3.25;;;;;;;;;;4980681;28;20114;-50
2023/07/23 13:05:09;;;;;;;10.32;3.33;;;;;;;;;;4996278;28;20077;-47
2023/07/23 13:07:35;;;;;;;4.40;3.63;;;;;;;;;;4994010;28;20027;-48
2023/07/23 13:10:00;;;;;;;5.25;3.20;;;;;;;;;;4987033;28;20057;-49
2023/07/23 13:12:26;;;;;;;3.25;2.95;;;;;;;;;;4998385;28;20045;-48
2023/07/23 13:14:51;;;;;;;3.92;3.47;;;;;;;;;;4994092;28;20037;-46
2023/07/23 13:17:16;;;;;;;6.18;3.53;;;;;;;;;;4986898;28;20082;-48
2023/07/23 13:19:42;;;;;;;3.60;3.30;;;;;;;;;;4988518;28;20889;-49
2023/07/23 13:22:07;;;;;;;4.85;3.28;;;;;;;;;;4995961;28;20083;-46
2023/07/23 13:24:33;;;;;;;5.10;3.20;;;;;;;;;;4978905;28;20025;-49
2023/07/23 13:26:58;;;;;;;3.92;3.10;;;;;;;;;;4987975;28;20057;-47
2023/07/23 13:29:24;;;;;;;4.90;3.50;;;;;;;;;;4998700;28;20109;-46
2023/07/23 13:31:49;;;;;;;3.97;3.20;;;;;;;;;;4997162;28;20096;-47
2023/07/23 13:34:14;;;;;;;4.22;3.63;;;;;;;;;;4995058;28;20022;-47
2023/07/23 13:36:40;;;;;;;11.70;3.10;;;;;;;;;;4992069;28;20086;-46
2023/07/23 13:39:05;;;;;;;5.75;3.70;;;;;;;;;;4994668;28;20424;-49
2023/07/23 13:41:31;;;;;;;7.95;3.38;;;;;;;;;;4990958;28;20114;-45
2023/07/23 13:43:56;;;;;;;7.78;3.70;;;;;;;;;;5004921;28;20062;-48
2023/07/23 13:46:22;;;;;;;5.78;3.65;;;;;;;;;;4989978;28;20050;-46
2023/07/23 13:48:47;;;;;;;4.20;3.80;;;;;;;;;;4999049;28;20089;-48
2023/07/23 13:51:12;;;;;;;4.22;3.83;;;;;;;;;;4980233;28;20161;-46
2023/07/23 13:53:38;;;;;;;11.88;3.75;;;;;;;;;;4997953;28;20026;-47
2023/07/23 13:56:03;;;;;;;5.57;3.90;;;;;;;;;;4985773;28;20055;-49
2023/07/23 13:58:29;;;;;;;8.27;4.15;;;;;;;;;;4995937;28;20034;-48
2023/07/23 14:00:54;;;;;;;7.03;3.92;;;;;;;;;;4995424;28;20061;-49
2023/07/23 14:03:20;;;;;;;6.80;3.70;;;;;;;;;;4989214;28;20030;-47
2023/07/23 14:05:45;;;;;;;6.15;4.03;;;;;;;;;;4991646;28;20066;-50
2023/07/23 14:08:11;;;;;;;6.45;3.92;;;;;;;;;;4978788;28;20550;-50
2023/07/23 14:10:36;;;;;;;6.03;3.88;;;;;;;;;;4994482;28;20057;-48
2023/07/23 14:13:02;;;;;;;10.23;4.32;;;;;;;;;;4995618;28;20038;-49
2023/07/23 14:15:28;;;;;;;5.20;4.20;;;;;;;;;;4991790;28;20040;-50
2023/07/23 14:17:53;;;;;;;4.35;3.45;;;;;;;;;;4996325;28;20088;-47
2023/07/23 14:20:18;;;;;;;9.35;3.70;;;;;;;;;;4990377;28;20069;-48
2023/07/23 14:22:44;;;;;;;5.50;3.65;;;;;;;;;;4987045;28;20037;-47
2023/07/23 14:25:09;;;;;;;3.97;3.58;;;;;;;;;;4988180;28;20571;-51
2023/07/23 14:27:35;;;;;;;4.82;3.70;;;;;;;;;;4997273;28;20092;-50
2023/07/23 14:30:00;;;;;;;6.97;4.00;;;;;;;;;;4998384;28;20030;-47
2023/07/23 14:32:25;;;;;;;10.05;3.90;;;;;;;;;;4993716;28;20473;-48
2023/07/23 14:34:51;;;;;;;5.00;3.65;;;;;;;;;;4983835;28;20057;-49
2023/07/23 14:37:17;;;;;;;5.57;4.00;;;;;;;;;;4985942;28;20037;-49
2023/07/23 14:39:43;;;;;;;5.07;3.55;;;;;;;;;;4996211;28;20029;-46